Time,TemperatureF,DewpointF,PressureIn,WindDirection,WindDirectionDegrees,WindSpeedMPH,WindSpeedGustMPH,Humidity,HourlyPrecipIn,Conditions,Clouds,dailyrainin,SoftwareType,DateUTC
2013-05-31 00:02:00,43.0,40.0,-100.00,North,-999,0.0,0.0,89,-99.99,,,-99.99,,2013-05-31 07:02:00,
2013-05-31 00:11:00,43.0,40.0,-100.00,North,-999,0.0,0.0,89,-99.99,,,-99.99,,2013-05-31 07:11:00,
2013-05-31 00:21:00,42.0,40.0,-100.00,North,-999,0.0,0.0,90,-99.99,,,-99.99,,2013-05-31 07:21:00,
2013-05-31 00:32:00,42.0,40.0,-100.00,North,-999,0.0,0.0,90,-99.99,,,-99.99,,2013-05-31 07:32:00,
2013-05-31 00:41:00,42.0,40.0,-100.00,North,-999,0.0,0.0,90,-99.99,,,-99.99,,2013-05-31 07:41:00,
2013-05-31 00:52:00,42.0,39.0,-100.00,North,-999,0.0,0.0,90,-99.99,,,-99.99,,2013-05-31 07:52:00,
2013-05-31 01:01:00,42.0,39.0,-100.00,North,-999,0.0,0.0,90,-99.99,,,-99.99,,2013-05-31 08:01:00,
2013-05-31 01:11:00,42.0,39.0,-100.00,North,-999,0.0,0.0,90,-99.99,,,-99.99,,2013-05-31 08:11:00,
2013-05-31 01:21:00,42.0,39.0,-100.00,North,-999,0.0,0.0,91,-99.99,,,-99.99,,2013-05-31 08:21:00,
2013-05-31 01:31:00,42.0,39.0,-100.00,North,-999,0.0,0.0,91,-99.99,,,-99.99,,2013-05-31 08:31:00,
2013-05-31 01:42:00,42.0,39.0,-100.00,North,-999,0.0,0.0,91,-99.99,,,-99.99,,2013-05-31 08:42:00,
2013-05-31 01:52:00,41.0,39.0,-100.00,North,-999,0.0,0.0,91,-99.99,,,-99.99,,2013-05-31 08:52:00,
2013-05-31 02:01:00,41.0,39.0,-100.00,North,-999,0.0,0.0,91,-99.99,,,-99.99,,2013-05-31 09:01:00,
2013-05-31 02:11:00,41.0,39.0,-100.00,North,-999,0.0,0.0,91,-99.99,,,-99.99,,2013-05-31 09:11:00,
2013-05-31 02:21:00,41.0,39.0,-100.00,North,-999,0.0,0.0,91,-99.99,,,-99.99,,2013-05-31 09:21:00,
2013-05-31 02:32:00,41.0,39.0,-100.00,North,-999,0.0,0.0,91,-99.99,,,-99.99,,2013-05-31 09:32:00,
2013-05-31 02:43:00,41.0,39.0,-100.00,North,-999,0.0,0.0,91,-99.99,,,-99.99,,2013-05-31 09:43:00,
2013-05-31 02:53:00,41.0,39.0,-100.00,North,-999,0.0,0.0,91,-99.99,,,-99.99,,2013-05-31 09:53:00,
2013-05-31 03:02:00,41.0,39.0,-100.00,North,-999,0.0,0.0,91,-99.99,,,-99.99,,2013-05-31 10:02:00,
2013-05-31 03:12:00,41.0,39.0,-100.00,North,-999,0.0,0.0,91,-99.99,,,-99.99,,2013-05-31 10:12:00,
2013-05-31 03:22:00,42.0,39.0,-100.00,North,-999,0.0,0.0,91,-99.99,,,-99.99,,2013-05-31 10:22:00,
2013-05-31 03:32:00,42.0,39.0,-100.00,North,-999,0.0,0.0,91,-99.99,,,-99.99,,2013-05-31 10:32:00,
2013-05-31 03:42:00,42.0,39.0,-100.00,North,-999,0.0,0.0,91,-99.99,,,-99.99,,2013-05-31 10:42:00,
2013-05-31 03:52:00,42.0,39.0,-100.00,North,-999,0.0,0.0,91,-99.99,,,-99.99,,2013-05-31 10:52:00,
2013-05-31 04:01:00,41.0,39.0,-100.00,North,-999,0.0,0.0,91,-99.99,,,-99.99,,2013-05-31 11:01:00,
2013-05-31 04:11:00,41.0,39.0,-100.00,North,-999,0.0,0.0,91,-99.99,,,-99.99,,2013-05-31 11:11:00,
2013-05-31 04:22:00,41.0,38.0,-100.00,North,-999,0.0,0.0,91,-99.99,,,-99.99,,2013-05-31 11:22:00,
2013-05-31 04:32:00,40.0,38.0,-100.00,North,-999,0.0,0.0,91,-99.99,,,-99.99,,2013-05-31 11:32:00,
2013-05-31 04:42:00,40.0,38.0,-100.00,North,-999,0.0,0.0,91,-99.99,,,-99.99,,2013-05-31 11:42:00,
2013-05-31 04:52:00,40.0,37.0,-100.00,SW,225,1.0,1.0,91,-99.99,,,-99.99,,2013-05-31 11:52:00,
2013-05-31 05:01:00,40.0,37.0,-100.00,North,-999,0.0,0.0,91,-99.99,,,-99.99,,2013-05-31 12:01:00,
2013-05-31 05:11:00,40.0,37.0,-100.00,North,-999,0.0,0.0,91,-99.99,,,-99.99,,2013-05-31 12:11:00,
2013-05-31 05:21:00,39.0,37.0,-100.00,SW,225,0.0,1.0,91,-99.99,,,-99.99,,2013-05-31 12:21:00,
2013-05-31 05:31:00,39.0,37.0,-100.00,SW,225,1.0,1.0,91,-99.99,,,-99.99,,2013-05-31 12:31:00,
2013-05-31 05:41:00,39.0,37.0,-100.00,SW,225,1.0,1.0,91,-99.99,,,-99.99,,2013-05-31 12:41:00,
2013-05-31 05:52:00,39.0,37.0,-100.00,SW,225,0.0,1.0,92,-99.99,,,-99.99,,2013-05-31 12:52:00,
2013-05-31 06:01:00,39.0,37.0,-100.00,North,-999,0.0,0.0,92,-99.99,,,-99.99,,2013-05-31 13:01:00,
2013-05-31 06:11:00,39.0,37.0,-100.00,North,-999,0.0,0.0,92,-99.99,,,-99.99,,2013-05-31 13:11:00,
2013-05-31 06:21:00,39.0,37.0,-100.00,North,-999,0.0,0.0,92,-99.99,,,-99.99,,2013-05-31 13:21:00,
2013-05-31 06:32:00,39.0,37.0,-100.00,North,-999,0.0,0.0,92,-99.99,,,-99.99,,2013-05-31 13:32:00,
2013-05-31 06:42:00,39.0,37.0,-100.00,North,-999,0.0,0.0,92,-99.99,,,-99.99,,2013-05-31 13:42:00,
2013-05-31 06:52:00,39.0,37.0,-100.00,North,-999,0.0,0.0,92,-99.99,,,-99.99,,2013-05-31 13:52:00,
2013-05-31 07:02:00,38.0,36.0,-100.00,North,-999,0.0,0.0,92,-99.99,,,-99.99,,2013-05-31 14:02:00,
2013-05-31 07:11:00,38.0,36.0,-100.00,North,-999,0.0,0.0,92,-99.99,,,-99.99,,2013-05-31 14:11:00,
2013-05-31 07:21:00,39.0,37.0,-100.00,North,-999,0.0,0.0,92,-99.99,,,-99.99,,2013-05-31 14:21:00,
2013-05-31 07:31:00,39.0,37.0,-100.00,North,-999,0.0,0.0,92,-99.99,,,-99.99,,2013-05-31 14:31:00,
2013-05-31 07:41:00,39.0,37.0,-100.00,North,-999,0.0,0.0,92,-99.99,,,-99.99,,2013-05-31 14:41:00,
2013-05-31 07:52:00,40.0,38.0,-100.00,SW,225,0.0,1.0,92,-99.99,,,-99.99,,2013-05-31 14:52:00,
2013-05-31 08:01:00,41.0,39.0,-100.00,North,-999,0.0,0.0,93,-99.99,,,-99.99,,2013-05-31 15:01:00,
2013-05-31 08:11:00,41.0,39.0,-100.00,North,-999,0.0,0.0,93,-99.99,,,-99.99,,2013-05-31 15:11:00,
2013-05-31 08:21:00,42.0,40.0,-100.00,North,-999,0.0,0.0,93,-99.99,,,-99.99,,2013-05-31 15:21:00,
2013-05-31 08:33:00,43.0,41.0,-100.00,North,-999,0.0,0.0,93,-99.99,,,-99.99,,2013-05-31 15:33:00,
2013-05-31 08:43:00,43.0,41.0,-100.00,North,-999,0.0,0.0,93,-99.99,,,-99.99,,2013-05-31 15:43:00,
2013-05-31 08:53:00,44.0,42.0,-100.00,North,-999,0.0,0.0,93,-99.99,,,-99.99,,2013-05-31 15:53:00,
2013-05-31 09:03:00,46.0,44.0,-100.00,North,-999,0.0,0.0,93,-99.99,,,-99.99,,2013-05-31 16:03:00,
2013-05-31 09:12:00,46.0,44.0,-100.00,North,-999,0.0,0.0,93,-99.99,,,-99.99,,2013-05-31 16:12:00,
2013-05-31 09:22:00,46.0,44.0,-100.00,North,-999,0.0,0.0,93,-99.99,,,-99.99,,2013-05-31 16:22:00,
2013-05-31 09:33:00,48.0,46.0,-100.00,North,-999,0.0,0.0,93,-99.99,,,-99.99,,2013-05-31 16:33:00,
2013-05-31 09:42:00,48.0,46.0,-100.00,North,-999,0.0,0.0,93,-99.99,,,-99.99,,2013-05-31 16:42:00,
2013-05-31 09:52:00,50.0,48.0,-100.00,North,0,0.0,1.0,92,-99.99,,,-99.99,,2013-05-31 16:52:00,
2013-05-31 10:02:00,52.0,46.0,-100.00,North,-999,0.0,0.0,82,-99.99,,,-99.99,,2013-05-31 17:02:00,
2013-05-31 10:12:00,52.0,46.0,-100.00,North,-999,0.0,0.0,82,-99.99,,,-99.99,,2013-05-31 17:12:00,
2013-05-31 10:22:00,53.0,45.0,-100.00,East,90,0.0,1.0,73,-99.99,,,-99.99,,2013-05-31 17:22:00,
2013-05-31 10:32:00,54.0,44.0,-100.00,East,90,0.0,1.0,67,-99.99,,,-99.99,,2013-05-31 17:32:00,
2013-05-31 10:42:00,54.0,44.0,-100.00,East,90,0.0,1.0,67,-99.99,,,-99.99,,2013-05-31 17:42:00,
2013-05-31 10:52:00,54.0,44.0,-100.00,East,90,0.0,1.0,67,-99.99,,,-99.99,,2013-05-31 17:52:00,
2013-05-31 11:01:00,56.0,42.0,-100.00,North,-999,0.0,0.0,61,-99.99,,,-99.99,,2013-05-31 18:01:00,
2013-05-31 11:11:00,56.0,42.0,-100.00,North,-999,0.0,0.0,61,-99.99,,,-99.99,,2013-05-31 18:11:00,
2013-05-31 11:22:00,56.0,42.0,-100.00,North,-999,0.0,0.0,60,-99.99,,,-99.99,,2013-05-31 18:22:00,
2013-05-31 11:31:00,57.0,42.0,-100.00,North,-999,0.0,0.0,58,-99.99,,,-99.99,,2013-05-31 18:31:00,
2013-05-31 11:41:00,57.0,42.0,-100.00,North,-999,0.0,0.0,58,-99.99,,,-99.99,,2013-05-31 18:41:00,
2013-05-31 11:52:00,57.0,42.0,-100.00,North,-999,0.0,0.0,58,-99.99,,,-99.99,,2013-05-31 18:52:00,
2013-05-31 12:01:00,58.0,42.0,-100.00,North,-999,0.0,0.0,55,-99.99,,,-99.99,,2013-05-31 19:01:00,
2013-05-31 12:11:00,58.0,42.0,-100.00,North,-999,0.0,0.0,55,-99.99,,,-99.99,,2013-05-31 19:11:00,
2013-05-31 12:22:00,59.0,43.0,-100.00,North,0,1.0,2.0,56,-99.99,,,-99.99,,2013-05-31 19:22:00,
2013-05-31 12:31:00,59.0,42.0,-100.00,North,-999,0.0,0.0,53,-99.99,,,-99.99,,2013-05-31 19:31:00,
2013-05-31 12:42:00,59.0,42.0,-100.00,North,-999,0.0,0.0,53,-99.99,,,-99.99,,2013-05-31 19:42:00,
2013-05-31 12:52:00,59.0,42.0,-100.00,East,90,1.0,3.0,54,-99.99,,,-99.99,,2013-05-31 19:52:00,
2013-05-31 13:01:00,59.0,42.0,-100.00,SE,135,0.0,1.0,53,-99.99,,,-99.99,,2013-05-31 20:01:00,
2013-05-31 13:11:00,59.0,42.0,-100.00,SE,135,0.0,1.0,53,-99.99,,,-99.99,,2013-05-31 20:11:00,
2013-05-31 13:22:00,59.0,41.0,-100.00,North,-999,0.0,0.0,51,-99.99,,,-99.99,,2013-05-31 20:22:00,
2013-05-31 13:31:00,59.0,42.0,-100.00,North,-999,0.0,0.0,54,-99.99,,,-99.99,,2013-05-31 20:31:00,
2013-05-31 13:41:00,59.0,42.0,-100.00,North,-999,0.0,0.0,54,-99.99,,,-99.99,,2013-05-31 20:41:00,
2013-05-31 13:52:00,59.0,42.0,-100.00,North,-999,0.0,0.0,53,-99.99,,,-99.99,,2013-05-31 20:52:00,
2013-05-31 14:01:00,60.0,42.0,-100.00,NE,45,1.0,1.0,51,-99.99,,,-99.99,,2013-05-31 21:01:00,
2013-05-31 14:11:00,60.0,42.0,-100.00,NE,45,1.0,1.0,51,-99.99,,,-99.99,,2013-05-31 21:11:00,
2013-05-31 14:22:00,61.0,42.0,-100.00,North,0,1.0,2.0,50,-99.99,,,-99.99,,2013-05-31 21:22:00,
2013-05-31 14:32:00,61.0,40.0,-100.00,East,90,1.0,3.0,46,-99.99,,,-99.99,,2013-05-31 21:32:00,
2013-05-31 14:42:00,61.0,40.0,-100.00,East,90,1.0,3.0,46,-99.99,,,-99.99,,2013-05-31 21:42:00,
2013-05-31 14:54:00,61.0,42.0,-100.00,North,-999,0.0,0.0,50,-99.99,,,-99.99,,2013-05-31 21:54:00,
2013-05-31 15:02:00,61.0,42.0,-100.00,East,90,0.0,1.0,49,-99.99,,,-99.99,,2013-05-31 22:02:00,
2013-05-31 15:12:00,63.0,41.0,-100.00,NE,45,0.0,1.0,44,-99.99,,,-99.99,,2013-05-31 22:12:00,
2013-05-31 15:22:00,63.0,41.0,-100.00,NE,45,0.0,1.0,44,-99.99,,,-99.99,,2013-05-31 22:22:00,
2013-05-31 15:33:00,63.0,39.0,-100.00,North,-999,0.0,0.0,41,-99.99,,,-99.99,,2013-05-31 22:33:00,
2013-05-31 15:41:00,63.0,39.0,-100.00,North,-999,0.0,0.0,41,-99.99,,,-99.99,,2013-05-31 22:41:00,
2013-05-31 15:53:00,65.0,40.0,-100.00,West,270,1.0,2.0,40,-99.99,,,-99.99,,2013-05-31 22:53:00,
2013-05-31 16:02:00,64.0,41.0,-100.00,North,-999,0.0,0.0,42,-99.99,,,-99.99,,2013-05-31 23:02:00,
2013-05-31 16:12:00,64.0,41.0,-100.00,North,-999,0.0,0.0,42,-99.99,,,-99.99,,2013-05-31 23:12:00,
2013-05-31 16:21:00,65.0,42.0,-100.00,North,0,1.0,2.0,43,-99.99,,,-99.99,,2013-05-31 23:21:00,
2013-05-31 16:32:00,64.0,39.0,-100.00,North,-999,0.0,0.0,40,-99.99,,,-99.99,,2013-05-31 23:32:00,
2013-05-31 16:42:00,64.0,39.0,-100.00,North,-999,0.0,0.0,40,-99.99,,,-99.99,,2013-05-31 23:42:00,
2013-05-31 16:52:00,63.0,40.0,-100.00,North,-999,0.0,0.0,43,-99.99,,,-99.99,,2013-05-31 23:52:00,
2013-05-31 17:01:00,66.0,42.0,-100.00,SW,225,5.0,8.0,42,-99.99,,,-99.99,,2013-06-01 00:01:00,
2013-05-31 17:11:00,66.0,42.0,-100.00,SW,225,5.0,8.0,42,-99.99,,,-99.99,,2013-06-01 00:11:00,
2013-05-31 17:22:00,66.0,42.0,-100.00,SW,225,5.0,8.0,42,-99.99,,,-99.99,,2013-06-01 00:22:00,
2013-05-31 17:31:00,65.0,43.0,-100.00,SW,225,4.0,7.0,45,-99.99,,,-99.99,,2013-06-01 00:31:00,
2013-05-31 17:42:00,65.0,43.0,-100.00,SW,225,4.0,7.0,45,-99.99,,,-99.99,,2013-06-01 00:42:00,
2013-05-31 17:52:00,65.0,43.0,-100.00,West,270,6.0,8.0,45,-99.99,,,-99.99,,2013-06-01 00:52:00,
2013-05-31 18:01:00,64.0,43.0,-100.00,West,270,4.0,8.0,46,-99.99,,,-99.99,,2013-06-01 01:01:00,
2013-05-31 18:11:00,64.0,43.0,-100.00,West,270,4.0,8.0,46,-99.99,,,-99.99,,2013-06-01 01:11:00,
2013-05-31 18:21:00,63.0,43.0,-100.00,West,270,7.0,10.0,47,-99.99,,,-99.99,,2013-06-01 01:21:00,
2013-05-31 18:32:00,62.0,43.0,-100.00,West,270,2.0,4.0,49,-99.99,,,-99.99,,2013-06-01 01:32:00,
2013-05-31 18:42:00,62.0,43.0,-100.00,West,270,2.0,4.0,49,-99.99,,,-99.99,,2013-06-01 01:42:00,
2013-05-31 18:52:00,62.0,43.0,-100.00,West,270,1.0,2.0,50,-99.99,,,-99.99,,2013-06-01 01:52:00,
2013-05-31 19:01:00,61.0,42.0,-100.00,West,270,3.0,4.0,50,-99.99,,,-99.99,,2013-06-01 02:01:00,
2013-05-31 19:11:00,61.0,42.0,-100.00,West,270,3.0,4.0,50,-99.99,,,-99.99,,2013-06-01 02:11:00,
2013-05-31 19:21:00,60.0,42.0,-100.00,SW,225,3.0,4.0,52,-99.99,,,-99.99,,2013-06-01 02:21:00,
2013-05-31 19:31:00,60.0,42.0,-100.00,SW,225,3.0,4.0,52,-99.99,,,-99.99,,2013-06-01 02:31:00,
2013-05-31 19:42:00,60.0,42.0,-100.00,SW,225,3.0,4.0,52,-99.99,,,-99.99,,2013-06-01 02:42:00,
2013-05-31 19:52:00,59.0,43.0,-100.00,West,270,1.0,4.0,56,-99.99,,,-99.99,,2013-06-01 02:52:00,
2013-05-31 20:01:00,59.0,43.0,-100.00,West,270,1.0,4.0,56,-99.99,,,-99.99,,2013-06-01 03:01:00,
2013-05-31 20:11:00,59.0,43.0,-100.00,West,270,1.0,4.0,56,-99.99,,,-99.99,,2013-06-01 03:11:00,
2013-05-31 20:21:00,58.0,43.0,-100.00,West,270,3.0,6.0,58,-99.99,,,-99.99,,2013-06-01 03:21:00,
2013-05-31 20:33:00,57.0,44.0,-100.00,West,270,3.0,4.0,60,-99.99,,,-99.99,,2013-06-01 03:33:00,
2013-05-31 20:43:00,57.0,44.0,-100.00,West,270,3.0,4.0,60,-99.99,,,-99.99,,2013-06-01 03:43:00,
2013-05-31 20:53:00,56.0,44.0,-100.00,North,-999,0.0,0.0,65,-99.99,,,-99.99,,2013-06-01 03:53:00,
2013-05-31 21:02:00,55.0,46.0,-100.00,SW,225,1.0,1.0,71,-99.99,,,-99.99,,2013-06-01 04:02:00,
2013-05-31 21:12:00,55.0,46.0,-100.00,SW,225,1.0,1.0,71,-99.99,,,-99.99,,2013-06-01 04:12:00,
2013-05-31 21:23:00,54.0,46.0,-100.00,North,-999,0.0,0.0,75,-99.99,,,-99.99,,2013-06-01 04:23:00,
2013-05-31 21:33:00,53.0,46.0,-100.00,North,-999,0.0,0.0,78,-99.99,,,-99.99,,2013-06-01 04:33:00,
2013-05-31 21:42:00,53.0,46.0,-100.00,North,-999,0.0,0.0,78,-99.99,,,-99.99,,2013-06-01 04:42:00,
2013-05-31 21:53:00,52.0,46.0,-100.00,North,-999,0.0,0.0,81,-99.99,,,-99.99,,2013-06-01 04:53:00,
2013-05-31 22:02:00,52.0,46.0,-100.00,North,-999,0.0,0.0,81,-99.99,,,-99.99,,2013-06-01 05:02:00,
2013-05-31 22:12:00,52.0,46.0,-100.00,North,-999,0.0,0.0,81,-99.99,,,-99.99,,2013-06-01 05:12:00,
2013-05-31 22:22:00,51.0,45.0,-100.00,North,-999,0.0,0.0,82,-99.99,,,-99.99,,2013-06-01 05:22:00,
2013-05-31 22:32:00,50.0,46.0,-100.00,North,-999,0.0,0.0,84,-99.99,,,-99.99,,2013-06-01 05:32:00,
2013-05-31 22:42:00,50.0,46.0,-100.00,North,-999,0.0,0.0,84,-99.99,,,-99.99,,2013-06-01 05:42:00,
2013-05-31 22:52:00,50.0,45.0,-100.00,North,-999,0.0,0.0,85,-99.99,,,-99.99,,2013-06-01 05:52:00,
2013-05-31 23:01:00,49.0,45.0,-100.00,North,-999,0.0,0.0,86,-99.99,,,-99.99,,2013-06-01 06:01:00,
2013-05-31 23:12:00,49.0,45.0,-100.00,North,-999,0.0,0.0,86,-99.99,,,-99.99,,2013-06-01 06:12:00,
2013-05-31 23:22:00,49.0,45.0,-100.00,SW,225,0.0,1.0,86,-99.99,,,-99.99,,2013-06-01 06:22:00,
2013-05-31 23:32:00,48.0,44.0,-100.00,North,-999,0.0,0.0,86,-99.99,,,-99.99,,2013-06-01 06:32:00,
2013-05-31 23:42:00,48.0,44.0,-100.00,North,-999,0.0,0.0,86,-99.99,,,-99.99,,2013-06-01 06:42:00,
2013-05-31 23:52:00,47.0,44.0,-100.00,West,270,0.0,1.0,87,-99.99,,,-99.99,,2013-06-01 06:52:00,